createdAt,value
2018-01-13T00:01:21.548Z,29.87
2018-01-13T00:03:49.118Z,30.15
2018-01-13T00:06:16.684Z,30.15
2018-01-13T00:08:44.225Z,31.30
2018-01-13T00:11:11.809Z,31.05
2018-01-13T00:13:39.354Z,32.13
2018-01-13T00:16:07.015Z,29.90
2018-01-13T00:18:34.612Z,28.92
2018-01-13T00:21:02.927Z,28.50
2018-01-13T00:23:30.502Z,29.60
2018-01-13T00:25:58.862Z,27.90
2018-01-13T00:28:26.649Z,29.08
2018-01-13T00:30:54.310Z,29.60
2018-01-13T00:33:21.952Z,29.50
2018-01-13T00:35:49.518Z,28.60
2018-01-13T00:38:17.123Z,30.05
2018-01-13T00:40:45.470Z,31.60
2018-01-13T00:43:13.008Z,28.40
2018-01-13T00:45:40.516Z,31.83
2018-01-13T00:48:08.860Z,29.75
2018-01-13T00:50:36.558Z,30.80
2018-01-13T00:53:04.144Z,31.27
2018-01-13T00:55:31.737Z,31.62
2018-01-13T00:58:00.158Z,32.90
2018-01-13T01:00:28.771Z,32.03
2018-01-13T01:02:56.329Z,33.25
2018-01-13T01:05:24.031Z,32.22
2018-01-13T01:07:53.108Z,31.52
2018-01-13T01:10:20.756Z,33.22
2018-01-13T01:12:48.327Z,32.00
2018-01-13T01:15:15.864Z,30.75
2018-01-13T01:17:44.179Z,32.00
2018-01-13T01:20:12.416Z,32.28
2018-01-13T01:22:40.801Z,33.45
2018-01-13T01:25:08.383Z,33.33
2018-01-13T01:27:35.990Z,32.25
2018-01-13T01:30:03.624Z,30.92
2018-01-13T01:32:31.275Z,31.85
2018-01-13T01:34:58.911Z,29.90
2018-01-13T01:37:26.519Z,29.80
2018-01-13T01:39:54.128Z,31.77
2018-01-13T01:42:21.716Z,29.10
2018-01-13T01:44:49.270Z,30.62
2018-01-13T01:47:16.858Z,29.55
2018-01-13T01:49:44.434Z,29.50
2018-01-13T01:52:11.986Z,30.50
2018-01-13T01:54:39.594Z,30.70
2018-01-13T01:57:07.172Z,31.12
2018-01-13T01:59:34.731Z,32.75
2018-01-13T02:02:02.382Z,27.85
2018-01-13T02:04:30.787Z,27.83
2018-01-13T02:06:58.373Z,30.12
2018-01-13T02:09:25.985Z,28.27
2018-01-13T02:11:53.576Z,27.75
2018-01-13T02:14:21.161Z,28.65
2018-01-13T02:16:48.690Z,26.37
2018-01-13T02:19:16.255Z,27.15
2018-01-13T02:21:43.863Z,27.92
2018-01-13T02:24:11.438Z,27.65
2018-01-13T02:26:39.082Z,30.83
2018-01-13T02:29:06.696Z,28.30
2018-01-13T02:31:35.077Z,28.50
2018-01-13T02:34:02.655Z,27.45
2018-01-13T02:36:30.238Z,29.48
2018-01-13T02:38:58.804Z,28.35
2018-01-13T02:41:26.384Z,28.65
2018-01-13T02:43:53.982Z,29.63
2018-01-13T02:46:21.542Z,28.42
2018-01-13T02:48:49.161Z,27.77
2018-01-13T02:51:18.369Z,26.98
2018-01-13T02:53:45.942Z,25.52
2018-01-13T02:56:14.173Z,27.70
2018-01-13T02:58:42.680Z,27.17
2018-01-13T03:01:11.052Z,27.20
2018-01-13T03:03:39.445Z,27.20
2018-01-13T03:06:07.007Z,25.83
2018-01-13T03:08:34.611Z,26.15
2018-01-13T03:11:02.155Z,26.48
2018-01-13T03:13:29.777Z,25.92
2018-01-13T03:15:57.373Z,27.55
2018-01-13T03:18:24.991Z,26.37
2018-01-13T03:20:54.310Z,27.40
2018-01-13T03:23:21.869Z,25.12
2018-01-13T03:25:49.581Z,28.02
2018-01-13T03:28:17.405Z,28.17
2018-01-13T03:30:44.962Z,28.10
2018-01-13T03:33:12.505Z,28.58
2018-01-13T03:35:40.810Z,27.42
2018-01-13T03:38:08.401Z,26.15
2018-01-13T03:40:35.987Z,25.25
2018-01-13T03:45:55.531Z,23.65
2018-01-13T03:48:23.071Z,23.50
2018-01-13T03:50:51.134Z,26.15
2018-01-13T03:53:18.808Z,23.65
2018-01-13T03:55:46.372Z,25.10
2018-01-13T03:58:13.985Z,24.67
2018-01-13T04:00:41.595Z,25.05
2018-01-13T04:03:09.230Z,25.62
2018-01-13T04:05:41.511Z,24.58
2018-01-13T04:08:09.116Z,22.75
2018-01-13T04:10:36.705Z,24.00
2018-01-13T04:13:04.279Z,25.15
2018-01-13T04:15:32.610Z,24.08
2018-01-13T04:18:00.238Z,23.85
2018-01-13T04:20:27.831Z,23.38
2018-01-13T04:22:56.209Z,24.65
2018-01-13T04:25:23.771Z,26.10
2018-01-13T04:27:51.372Z,23.73
2018-01-13T04:30:19.672Z,25.12
2018-01-13T04:32:47.255Z,26.08
2018-01-13T04:35:14.832Z,25.27
2018-01-13T04:37:43.108Z,24.60
2018-01-13T04:40:10.756Z,23.35
2018-01-13T04:42:38.340Z,24.58
2018-01-13T04:45:05.949Z,25.35
2018-01-13T04:47:33.576Z,25.95
2018-01-13T04:50:01.172Z,25.65
2018-01-13T04:52:28.785Z,25.58
2018-01-13T04:54:56.705Z,25.80
2018-01-13T04:57:24.279Z,23.70
2018-01-13T04:59:51.845Z,24.83
2018-01-13T05:02:19.401Z,25.48
2018-01-13T05:04:47.008Z,25.52
2018-01-13T05:07:14.564Z,24.50
2018-01-13T05:09:43.045Z,24.80
2018-01-13T05:12:10.613Z,25.30
2018-01-13T05:14:39.101Z,25.90
2018-01-13T05:17:09.266Z,24.75
2018-01-13T05:19:37.396Z,24.12
2018-01-13T05:22:05.160Z,24.17
2018-01-13T05:24:32.731Z,24.77
2018-01-13T05:27:01.110Z,25.33
2018-01-13T05:29:29.411Z,24.40
2018-01-13T05:31:56.973Z,26.42
2018-01-13T05:34:25.562Z,25.40
2018-01-13T05:36:53.160Z,23.90
2018-01-13T05:39:20.845Z,24.70
2018-01-13T05:41:49.196Z,23.60
2018-01-13T05:44:16.766Z,24.70
2018-01-13T05:46:44.312Z,25.42
2018-01-13T05:49:12.709Z,25.05
2018-01-13T05:51:41.065Z,25.08
2018-01-13T05:54:08.645Z,25.27
2018-01-13T05:56:36.209Z,25.37
2018-01-13T05:59:03.768Z,24.63
2018-01-13T06:01:31.391Z,25.08
2018-01-13T06:03:59.025Z,24.87
2018-01-13T06:06:26.594Z,26.92
2018-01-13T06:08:54.416Z,24.77
2018-01-13T06:11:22.052Z,25.37
2018-01-13T06:13:49.677Z,27.10
2018-01-13T06:16:17.234Z,25.10
2018-01-13T06:18:44.878Z,27.55
2018-01-13T06:21:12.417Z,25.73
2018-01-13T06:23:40.043Z,27.70
2018-01-13T06:26:07.613Z,26.55
2018-01-13T06:28:35.196Z,27.02
2018-01-13T06:31:02.749Z,27.58
2018-01-13T06:33:30.336Z,25.92
2018-01-13T06:35:58.763Z,26.75
2018-01-13T06:38:26.319Z,28.77
2018-01-13T06:40:54.768Z,27.83
2018-01-13T06:43:22.565Z,27.58
2018-01-13T06:45:50.289Z,26.37
2018-01-13T06:48:17.877Z,28.40
2018-01-13T06:50:45.415Z,28.10
2018-01-13T06:53:12.961Z,29.12
2018-01-13T06:55:41.320Z,28.67
2018-01-13T06:58:09.651Z,30.05
2018-01-13T07:00:37.226Z,28.65
2018-01-13T07:03:04.903Z,27.10
2018-01-13T07:05:33.171Z,28.50
2018-01-13T07:08:01.710Z,28.15
2018-01-13T07:10:29.384Z,31.05
2018-01-13T07:12:56.993Z,28.60
2018-01-13T07:15:24.653Z,30.98
2018-01-13T07:17:52.503Z,28.83
2018-01-13T07:20:20.261Z,28.65
2018-01-13T07:22:47.948Z,31.33
2018-01-13T07:25:15.685Z,29.37
2018-01-13T07:27:43.346Z,32.45
2018-01-13T07:30:10.912Z,30.45
2018-01-13T07:32:38.476Z,27.48
2018-01-13T07:35:06.106Z,29.45
2018-01-13T07:37:35.318Z,29.85
2018-01-13T07:40:02.898Z,27.87
2018-01-13T07:42:30.472Z,28.75
2018-01-13T07:44:58.086Z,26.30
2018-01-13T07:47:25.676Z,30.52
2018-01-13T07:49:53.207Z,26.90
2018-01-13T07:52:20.824Z,27.25
2018-01-13T07:54:48.418Z,28.12
2018-01-13T07:57:16.025Z,26.67
2018-01-13T07:59:44.265Z,26.60
2018-01-13T08:02:11.844Z,25.80
2018-01-13T08:04:39.461Z,26.05
2018-01-13T08:07:07.040Z,25.88
2018-01-13T08:09:34.651Z,27.30
2018-01-13T08:12:03.003Z,27.30
2018-01-13T08:14:30.590Z,23.60
2018-01-13T08:16:58.182Z,26.02
2018-01-13T08:19:25.809Z,24.73
2018-01-13T08:21:53.442Z,25.90
2018-01-13T08:24:21.169Z,22.58
2018-01-13T08:26:48.707Z,24.00
2018-01-13T08:29:16.242Z,21.80
2018-01-13T08:31:44.622Z,22.65
2018-01-13T08:34:12.841Z,24.23
2018-01-13T08:36:41.149Z,23.90
2018-01-13T08:39:08.784Z,21.92
2018-01-13T08:41:36.509Z,23.65
2018-01-13T08:44:04.102Z,22.15
2018-01-13T08:46:31.789Z,22.20
2018-01-13T08:48:59.579Z,22.60
2018-01-13T08:51:27.397Z,22.02
2018-01-13T08:53:55.202Z,23.38
2018-01-13T08:56:22.867Z,22.27
2018-01-13T08:58:50.516Z,23.12
2018-01-13T09:01:19.607Z,20.45
2018-01-13T09:03:47.945Z,21.48
2018-01-13T09:06:15.882Z,23.73
2018-01-13T09:08:43.454Z,21.30
2018-01-13T09:11:11.004Z,20.98
2018-01-13T09:13:38.617Z,22.95
2018-01-13T09:16:06.223Z,22.15
2018-01-13T09:18:33.862Z,23.50
2018-01-13T09:21:02.371Z,22.15
2018-01-13T09:23:30.983Z,23.25
2018-01-13T09:25:58.583Z,21.30
2018-01-13T09:28:27.612Z,23.05
2018-01-13T09:30:55.235Z,22.70
2018-01-13T09:33:23.878Z,22.23
2018-01-13T09:35:51.493Z,23.40
2018-01-13T09:38:19.845Z,21.25
2018-01-13T09:40:47.425Z,23.23
2018-01-13T09:43:15.886Z,23.10
2018-01-13T09:45:43.488Z,21.27
2018-01-13T09:48:11.043Z,21.83
2018-01-13T09:50:38.679Z,21.48
2018-01-13T09:53:07.045Z,22.70
2018-01-13T09:55:35.426Z,23.75
2018-01-13T09:58:02.992Z,21.48
2018-01-13T10:00:30.701Z,23.12
2018-01-13T10:02:58.326Z,22.55
2018-01-13T10:05:26.714Z,22.08
2018-01-13T10:07:54.281Z,21.87
2018-01-13T10:10:21.838Z,20.17
2018-01-13T10:12:49.393Z,21.15
2018-01-13T10:15:16.956Z,19.90
2018-01-13T10:17:44.465Z,18.87
2018-01-13T10:20:12.844Z,18.15
2018-01-13T10:22:41.172Z,18.95
2018-01-13T10:25:08.804Z,20.52
2018-01-13T10:27:37.213Z,21.37
2018-01-13T10:30:04.809Z,20.77
2018-01-13T10:32:32.398Z,20.83
2018-01-13T10:35:00.081Z,21.17
2018-01-13T10:37:27.692Z,19.27
2018-01-13T10:39:55.293Z,21.08
2018-01-13T10:42:23.567Z,21.37
2018-01-13T10:44:51.134Z,21.35
2018-01-13T10:47:18.665Z,20.48
2018-01-13T10:49:46.279Z,20.50
2018-01-13T10:52:13.862Z,21.33
2018-01-13T10:54:41.457Z,18.95
2018-01-13T10:57:09.008Z,18.23
2018-01-13T10:59:36.585Z,19.23
2018-01-13T11:02:04.120Z,16.55
2018-01-13T11:04:32.498Z,19.12
2018-01-13T11:07:00.202Z,19.90
2018-01-13T11:09:28.436Z,18.73
2018-01-13T11:11:56.731Z,18.67
2018-01-13T11:14:24.398Z,19.98
2018-01-13T11:16:52.012Z,17.12
2018-01-13T11:19:19.582Z,20.20
2018-01-13T11:21:47.206Z,19.02
2018-01-13T11:24:14.888Z,19.45
2018-01-13T11:26:42.537Z,19.67
2018-01-13T11:29:10.093Z,20.60
2018-01-13T11:31:37.702Z,20.58
2018-01-13T11:34:06.011Z,21.20
2018-01-13T11:36:33.586Z,17.37
2018-01-13T11:39:01.162Z,19.00
2018-01-13T11:41:28.782Z,19.60
2018-01-13T11:43:56.517Z,21.42
2018-01-13T11:46:24.069Z,22.15
2018-01-13T11:48:51.699Z,19.92
2018-01-13T11:51:19.287Z,18.92
2018-01-13T11:53:46.837Z,19.42
2018-01-13T11:56:14.469Z,20.12
2018-01-13T11:58:42.090Z,18.58
2018-01-13T12:01:09.712Z,18.17
2018-01-13T12:03:38.197Z,18.37
2018-01-13T12:06:05.782Z,19.30
2018-01-13T12:08:33.353Z,19.70
2018-01-13T12:11:00.998Z,19.48
2018-01-13T12:13:28.831Z,19.27
2018-01-13T12:15:57.231Z,20.55
2018-01-13T12:18:24.842Z,18.87
2018-01-13T12:20:52.490Z,17.42
2018-01-13T12:23:20.860Z,18.85
2018-01-13T12:25:49.226Z,21.45
2018-01-13T12:28:17.165Z,20.52
2018-01-13T12:30:44.760Z,20.37
2018-01-13T12:33:12.414Z,20.17
2018-01-13T12:35:40.510Z,20.02
2018-01-13T12:38:08.143Z,21.05
2018-01-13T12:40:35.726Z,18.85
2018-01-13T12:43:03.322Z,18.30
2018-01-13T12:45:31.028Z,19.10
2018-01-13T12:47:58.666Z,21.30
2018-01-13T12:50:26.267Z,18.50
2018-01-13T12:52:54.652Z,18.80
2018-01-13T12:55:23.919Z,23.05
2018-01-13T12:57:51.526Z,18.02
2018-01-13T13:00:19.099Z,19.35
2018-01-13T13:02:46.744Z,18.50
2018-01-13T13:05:14.337Z,18.85
2018-01-13T13:07:41.986Z,18.05
2018-01-13T13:10:09.534Z,20.17
2018-01-13T13:12:37.160Z,18.73
2018-01-13T13:15:05.499Z,18.67
2018-01-13T13:17:33.082Z,19.17
2018-01-13T13:20:01.500Z,17.80
2018-01-13T13:22:29.095Z,17.85
2018-01-13T13:24:56.834Z,18.98
2018-01-13T13:27:24.433Z,20.95
2018-01-13T13:29:52.029Z,16.50
2018-01-13T13:32:20.453Z,18.33
2018-01-13T13:34:48.013Z,16.08
2018-01-13T13:37:15.643Z,16.67
2018-01-13T13:39:43.949Z,18.50
2018-01-13T13:42:11.715Z,17.62
2018-01-13T13:44:39.343Z,19.08
2018-01-13T13:47:07.653Z,19.00
2018-01-13T13:49:35.269Z,17.58
2018-01-13T13:52:02.868Z,20.15
2018-01-13T13:54:30.505Z,17.60
2018-01-13T13:56:58.885Z,18.42
2018-01-13T13:59:27.216Z,17.33
2018-01-13T14:01:54.753Z,17.80
2018-01-13T14:04:22.343Z,18.73
2018-01-13T14:06:49.890Z,17.77
2018-01-13T14:09:17.421Z,17.15
2018-01-13T14:11:45.040Z,18.67
2018-01-13T14:14:12.669Z,18.05
2018-01-13T14:16:40.216Z,18.73
2018-01-13T14:19:07.825Z,18.67
2018-01-13T14:21:35.394Z,17.12
2018-01-13T14:24:03.832Z,17.45
2018-01-13T14:26:31.433Z,21.12
2018-01-13T14:28:59.769Z,16.15
2018-01-13T14:31:27.370Z,17.73
2018-01-13T14:33:55.778Z,16.95
2018-01-13T14:36:23.320Z,15.10
2018-01-13T14:38:50.914Z,17.17
2018-01-13T14:41:18.558Z,17.90
2018-01-13T14:43:46.134Z,16.45
2018-01-13T14:46:13.702Z,15.32
2018-01-13T14:48:41.325Z,14.90
2018-01-13T14:51:09.643Z,16.87
2018-01-13T14:53:37.200Z,15.32
2018-01-13T14:56:04.757Z,14.98
2018-01-13T14:58:32.918Z,17.15
2018-01-13T15:01:00.561Z,14.77
2018-01-13T15:03:28.124Z,16.17
2018-01-13T15:05:55.707Z,15.95
2018-01-13T15:08:23.337Z,14.55
2018-01-13T15:10:50.914Z,15.70
2018-01-13T15:13:18.594Z,14.35
2018-01-13T15:15:46.225Z,16.33
2018-01-13T15:18:13.833Z,16.30
2018-01-13T15:20:41.440Z,15.48
2018-01-13T15:23:09.735Z,16.33
2018-01-13T15:25:37.320Z,15.82
2018-01-13T15:28:05.614Z,13.90
2018-01-13T15:30:33.222Z,14.32
2018-01-13T15:33:00.833Z,15.05
2018-01-13T15:35:28.426Z,13.70
2018-01-13T15:37:56.730Z,12.18
2018-01-13T15:40:24.305Z,14.00
2018-01-13T15:42:52.028Z,15.13
2018-01-13T15:45:20.543Z,15.98
2018-01-13T15:47:48.169Z,13.77
2018-01-13T15:50:15.707Z,14.93
2018-01-13T15:52:43.880Z,14.30
2018-01-13T15:55:11.508Z,13.95
2018-01-13T15:57:39.089Z,13.62
2018-01-13T16:00:06.626Z,14.15
2018-01-13T16:02:34.200Z,14.55
2018-01-13T16:05:01.823Z,13.93
2018-01-13T16:07:29.361Z,14.43
2018-01-13T16:09:56.969Z,14.57
2018-01-13T16:12:24.576Z,14.15
2018-01-13T16:14:52.312Z,16.30
2018-01-13T16:17:19.887Z,15.75
2018-01-13T16:19:47.534Z,14.52
2018-01-13T16:22:16.570Z,14.95
2018-01-13T16:24:44.442Z,15.07
2018-01-13T16:27:12.098Z,14.93
2018-01-13T16:29:39.697Z,14.43
2018-01-13T16:32:07.243Z,15.43
2018-01-13T16:34:34.809Z,15.45
2018-01-13T16:37:02.472Z,15.82
2018-01-13T16:39:30.077Z,16.33
2018-01-13T16:41:58.575Z,15.48
2018-01-13T16:44:26.171Z,16.87
2018-01-13T16:46:53.817Z,15.98
2018-01-13T16:49:21.551Z,15.23
2018-01-13T16:51:49.245Z,16.80
2018-01-13T16:54:16.947Z,17.33
2018-01-13T16:56:44.482Z,15.50
2018-01-13T16:59:12.220Z,16.58
2018-01-13T17:01:40.006Z,16.17
2018-01-13T17:04:07.596Z,15.77
2018-01-13T17:06:35.161Z,15.98
2018-01-13T17:09:03.005Z,15.88
2018-01-13T17:11:30.575Z,16.70
2018-01-13T17:13:58.408Z,18.33
2018-01-13T17:16:26.034Z,17.48
2018-01-13T17:18:53.620Z,16.70
2018-01-13T17:21:21.278Z,16.20
2018-01-13T17:23:49.088Z,16.73
2018-01-13T17:26:16.662Z,17.92
2018-01-13T17:28:44.400Z,17.08
2018-01-13T17:31:12.141Z,17.92
2018-01-13T17:33:40.134Z,17.35
2018-01-13T17:36:08.008Z,18.27
2018-01-13T17:38:36.289Z,17.50
2018-01-13T17:41:04.661Z,17.25
2018-01-13T17:43:32.402Z,18.52
2018-01-13T17:46:00.818Z,18.85
2018-01-13T17:48:29.234Z,20.12
2018-01-13T17:50:56.839Z,16.98
2018-01-13T17:53:24.459Z,19.15
2018-01-13T17:58:25.950Z,18.17
2018-01-13T18:00:53.702Z,19.05
2018-01-13T18:06:12.907Z,17.80
2018-01-13T18:08:42.298Z,19.00
2018-01-13T18:11:10.957Z,18.60
2018-01-13T18:13:39.484Z,18.67
2018-01-13T18:16:07.090Z,20.20
2018-01-13T18:18:35.535Z,18.30
2018-01-13T18:21:03.167Z,18.35
2018-01-13T18:23:30.848Z,18.77
2018-01-13T18:25:59.313Z,19.12
2018-01-13T18:28:27.831Z,20.33
2018-01-13T18:30:56.172Z,19.17
2018-01-13T18:33:25.574Z,20.50
2018-01-13T18:35:53.485Z,20.73
2018-01-13T18:38:22.929Z,19.70
2018-01-13T18:40:52.812Z,20.33
2018-01-13T18:43:20.496Z,19.60
2018-01-13T18:45:48.295Z,19.10
2018-01-13T18:48:16.790Z,19.37
2018-01-13T18:50:45.749Z,20.85
2018-01-13T18:53:14.681Z,20.35
2018-01-13T18:55:42.412Z,19.92
2018-01-13T18:58:10.300Z,20.67
2018-01-13T19:00:39.057Z,23.42
2018-01-13T19:03:07.629Z,21.52
2018-01-13T19:05:35.408Z,18.37
2018-01-13T19:08:03.863Z,22.05
2018-01-13T19:10:32.366Z,20.85
2018-01-13T19:13:01.269Z,21.52
2018-01-13T19:15:30.301Z,20.50
2018-01-13T19:17:58.859Z,21.05
2018-01-13T19:20:27.410Z,22.60
2018-01-13T19:23:00.720Z,22.02
2018-01-13T19:25:28.830Z,19.85
2018-01-13T19:27:57.628Z,20.65
2018-01-13T19:30:26.301Z,21.27
2018-01-13T19:32:54.871Z,23.65
2018-01-13T19:35:23.016Z,23.05
2018-01-13T19:37:50.665Z,22.85
2018-01-13T19:40:19.600Z,22.80
2018-01-13T19:42:47.177Z,22.37
2018-01-13T19:45:14.746Z,23.02
2018-01-13T19:47:43.094Z,22.75
2018-01-13T19:50:11.619Z,24.80
2018-01-13T19:52:40.195Z,22.87
2018-01-13T19:55:07.816Z,22.30
2018-01-13T19:57:35.482Z,23.10
2018-01-13T20:00:03.136Z,23.35
2018-01-13T20:02:30.697Z,22.30
2018-01-13T20:04:58.778Z,21.73
2018-01-13T20:07:26.352Z,20.35
2018-01-13T20:09:54.709Z,22.23
2018-01-13T20:12:22.292Z,20.05
2018-01-13T20:14:50.009Z,21.70
2018-01-13T20:17:17.565Z,19.92
2018-01-13T20:19:45.140Z,18.87
2018-01-13T20:22:12.888Z,17.73
2018-01-13T20:24:40.794Z,19.25
2018-01-13T20:27:08.559Z,18.30
2018-01-13T20:29:36.978Z,19.52
2018-01-13T20:32:04.676Z,18.40
2018-01-13T20:34:32.240Z,19.52
2018-01-13T20:36:59.910Z,19.20
2018-01-13T20:39:27.562Z,21.10
2018-01-13T20:41:55.115Z,22.62
2018-01-13T20:44:22.785Z,20.98
2018-01-13T20:46:50.444Z,21.75
2018-01-13T20:49:18.002Z,20.95
2018-01-13T20:51:45.590Z,21.95
2018-01-13T20:54:13.181Z,19.45
2018-01-13T20:59:32.815Z,20.45
2018-01-13T21:02:00.442Z,21.08
2018-01-13T21:04:28.909Z,22.02
2018-01-13T21:06:56.517Z,21.08
2018-01-13T21:09:24.099Z,20.55
2018-01-13T21:11:52.526Z,23.27
2018-01-13T21:14:20.234Z,21.62
2018-01-13T21:16:47.972Z,21.42
2018-01-13T21:19:15.600Z,21.33
2018-01-13T21:21:43.263Z,22.10
2018-01-13T21:24:11.669Z,20.45
2018-01-13T21:26:39.341Z,23.00
2018-01-13T21:29:06.954Z,23.40
2018-01-13T21:31:34.558Z,19.85
2018-01-13T21:34:02.886Z,21.02
2018-01-13T21:36:31.298Z,21.75
2018-01-13T21:38:58.891Z,22.62
2018-01-13T21:41:26.473Z,19.85
2018-01-13T21:43:54.138Z,18.48
2018-01-13T21:46:21.770Z,22.65
2018-01-13T21:48:49.483Z,20.95
2018-01-13T21:51:17.124Z,21.70
2018-01-13T21:53:44.771Z,20.62
2018-01-13T21:56:13.172Z,21.27
2018-01-13T21:58:40.773Z,21.20
2018-01-13T22:01:08.485Z,20.20
2018-01-13T22:06:26.600Z,22.00
2018-01-13T22:08:54.162Z,19.42
2018-01-13T22:11:21.755Z,20.88
2018-01-13T22:13:55.514Z,20.73
2018-01-13T22:16:23.153Z,19.15
2018-01-13T22:18:51.627Z,20.02
2018-01-13T22:21:19.202Z,21.92
2018-01-13T22:23:46.917Z,22.08
2018-01-13T22:26:15.263Z,21.00
2018-01-13T22:28:42.896Z,21.05
2018-01-13T22:31:10.642Z,22.05
2018-01-13T22:33:38.222Z,21.00
2018-01-13T22:38:56.382Z,19.67
2018-01-13T22:41:24.044Z,20.33
2018-01-13T22:43:51.667Z,20.25
2018-01-13T22:46:19.361Z,19.30
2018-01-13T22:48:46.926Z,19.92
2018-01-13T22:51:15.334Z,19.50
2018-01-13T22:53:43.777Z,20.80
2018-01-13T22:56:12.342Z,19.35
2018-01-13T22:58:39.908Z,17.73
2018-01-13T23:01:07.465Z,19.60
2018-01-13T23:03:35.056Z,18.37
2018-01-13T23:06:03.228Z,20.23
2018-01-13T23:08:30.793Z,20.30
2018-01-13T23:10:59.190Z,19.85
2018-01-13T23:13:27.584Z,18.65
2018-01-13T23:15:55.568Z,20.05
2018-01-13T23:18:23.133Z,19.80
2018-01-13T23:20:50.786Z,20.20
2018-01-13T23:23:18.383Z,19.08
2018-01-13T23:25:45.998Z,20.27
2018-01-13T23:28:13.887Z,20.15
2018-01-13T23:30:41.462Z,21.02
2018-01-13T23:33:09.520Z,19.02
2018-01-13T23:35:37.172Z,20.92
2018-01-13T23:38:04.769Z,19.80
2018-01-13T23:40:32.330Z,20.33
2018-01-13T23:43:00.583Z,18.02
2018-01-13T23:45:28.236Z,18.58
2018-01-13T23:47:55.830Z,20.25
2018-01-13T23:50:23.626Z,19.05
2018-01-13T23:52:51.208Z,19.95
2018-01-13T23:55:18.827Z,18.83
2018-01-13T23:57:47.148Z,17.95
